sensor_id;sensor_type;location;lat;lon;timestamp;P1;durP1;ratioP1;P2;durP2;ratioP2
37411;SDS011;23278;52.110;6.050;2023-05-25T00:00:12;3.33;;;1.02;;
37411;SDS011;23278;52.110;6.050;2023-05-25T00:02:40;4.03;;;1.65;;
37411;SDS011;23278;52.110;6.050;2023-05-25T00:05:07;4.78;;;1.60;;
37411;SDS011;23278;52.110;6.050;2023-05-25T00:07:33;6.60;;;2.42;;
37411;SDS011;23278;52.110;6.050;2023-05-25T00:09:59;3.13;;;1.60;;
37411;SDS011;23278;52.110;6.050;2023-05-25T00:12:25;3.35;;;1.50;;
37411;SDS011;23278;52.110;6.050;2023-05-25T00:14:51;3.13;;;1.25;;
37411;SDS011;23278;52.110;6.050;2023-05-25T00:17:17;4.10;;;1.10;;
37411;SDS011;23278;52.110;6.050;2023-05-25T00:19:43;2.08;;;1.00;;
37411;SDS011;23278;52.110;6.050;2023-05-25T00:22:12;3.75;;;1.50;;
37411;SDS011;23278;52.110;6.050;2023-05-25T00:24:38;2.85;;;1.00;;
37411;SDS011;23278;52.110;6.050;2023-05-25T00:27:05;3.15;;;1.10;;
37411;SDS011;23278;52.110;6.050;2023-05-25T00:29:34;2.20;;;1.20;;
37411;SDS011;23278;52.110;6.050;2023-05-25T00:32:00;6.60;;;1.48;;
37411;SDS011;23278;52.110;6.050;2023-05-25T00:34:26;2.13;;;1.48;;
37411;SDS011;23278;52.110;6.050;2023-05-25T00:36:53;4.20;;;1.75;;
37411;SDS011;23278;52.110;6.050;2023-05-25T00:39:19;1.75;;;1.35;;
37411;SDS011;23278;52.110;6.050;2023-05-25T00:41:46;5.18;;;1.15;;
37411;SDS011;23278;52.110;6.050;2023-05-25T00:44:13;2.58;;;1.40;;
37411;SDS011;23278;52.110;6.050;2023-05-25T00:46:46;2.78;;;1.70;;
37411;SDS011;23278;52.110;6.050;2023-05-25T00:49:13;3.22;;;1.17;;
37411;SDS011;23278;52.110;6.050;2023-05-25T00:51:40;5.22;;;1.50;;
37411;SDS011;23278;52.110;6.050;2023-05-25T00:54:07;3.50;;;1.55;;
37411;SDS011;23278;52.110;6.050;2023-05-25T00:56:34;2.85;;;1.50;;
37411;SDS011;23278;52.110;6.050;2023-05-25T00:59:05;4.88;;;2.08;;
37411;SDS011;23278;52.110;6.050;2023-05-25T01:01:34;5.53;;;1.30;;
37411;SDS011;23278;52.110;6.050;2023-05-25T01:04:05;4.95;;;1.92;;
37411;SDS011;23278;52.110;6.050;2023-05-25T01:06:33;3.42;;;1.30;;
37411;SDS011;23278;52.110;6.050;2023-05-25T01:09:03;3.40;;;1.95;;
37411;SDS011;23278;52.110;6.050;2023-05-25T01:11:34;3.40;;;1.13;;
37411;SDS011;23278;52.110;6.050;2023-05-25T01:14:01;4.10;;;1.52;;
37411;SDS011;23278;52.110;6.050;2023-05-25T01:16:27;4.05;;;1.65;;
37411;SDS011;23278;52.110;6.050;2023-05-25T01:18:54;4.10;;;1.60;;
37411;SDS011;23278;52.110;6.050;2023-05-25T01:21:21;4.90;;;2.03;;
37411;SDS011;23278;52.110;6.050;2023-05-25T01:29:58;4.60;;;2.10;;
37411;SDS011;23278;52.110;6.050;2023-05-25T01:32:26;4.47;;;1.83;;
37411;SDS011;23278;52.110;6.050;2023-05-25T01:34:53;2.58;;;1.30;;
37411;SDS011;23278;52.110;6.050;2023-05-25T01:37:20;1.95;;;1.05;;
37411;SDS011;23278;52.110;6.050;2023-05-25T01:39:48;3.22;;;0.75;;
37411;SDS011;23278;52.110;6.050;2023-05-25T01:42:15;2.40;;;1.23;;
37411;SDS011;23278;52.110;6.050;2023-05-25T01:44:41;2.60;;;1.33;;
37411;SDS011;23278;52.110;6.050;2023-05-25T01:47:09;2.17;;;0.93;;
37411;SDS011;23278;52.110;6.050;2023-05-25T01:49:42;2.45;;;1.20;;
37411;SDS011;23278;52.110;6.050;2023-05-25T01:54:50;2.35;;;0.90;;
37411;SDS011;23278;52.110;6.050;2023-05-25T01:57:19;2.85;;;1.48;;
37411;SDS011;23278;52.110;6.050;2023-05-25T01:59:49;3.85;;;1.58;;
37411;SDS011;23278;52.110;6.050;2023-05-25T02:02:20;2.58;;;1.10;;
37411;SDS011;23278;52.110;6.050;2023-05-25T02:04:46;4.15;;;1.80;;
37411;SDS011;23278;52.110;6.050;2023-05-25T02:07:14;5.55;;;1.70;;
37411;SDS011;23278;52.110;6.050;2023-05-25T02:09:40;1.98;;;1.13;;
37411;SDS011;23278;52.110;6.050;2023-05-25T02:12:06;2.47;;;1.20;;
37411;SDS011;23278;52.110;6.050;2023-05-25T02:14:32;4.60;;;1.98;;
37411;SDS011;23278;52.110;6.050;2023-05-25T02:16:58;2.60;;;1.40;;
37411;SDS011;23278;52.110;6.050;2023-05-25T02:19:26;3.72;;;1.52;;
37411;SDS011;23278;52.110;6.050;2023-05-25T02:21:54;2.80;;;1.10;;
37411;SDS011;23278;52.110;6.050;2023-05-25T02:24:22;1.73;;;1.20;;
37411;SDS011;23278;52.110;6.050;2023-05-25T02:26:49;2.45;;;1.30;;
37411;SDS011;23278;52.110;6.050;2023-05-25T02:29:16;3.25;;;1.15;;
37411;SDS011;23278;52.110;6.050;2023-05-25T02:31:42;4.85;;;1.63;;
37411;SDS011;23278;52.110;6.050;2023-05-25T02:34:08;5.65;;;1.30;;
37411;SDS011;23278;52.110;6.050;2023-05-25T02:36:34;3.85;;;1.20;;
37411;SDS011;23278;52.110;6.050;2023-05-25T02:39:03;2.33;;;1.10;;
37411;SDS011;23278;52.110;6.050;2023-05-25T02:41:29;5.03;;;1.52;;
37411;SDS011;23278;52.110;6.050;2023-05-25T02:43:55;4.65;;;2.03;;
37411;SDS011;23278;52.110;6.050;2023-05-25T02:46:21;2.42;;;1.38;;
37411;SDS011;23278;52.110;6.050;2023-05-25T02:48:47;3.90;;;1.55;;
37411;SDS011;23278;52.110;6.050;2023-05-25T02:51:14;10.80;;;2.70;;
37411;SDS011;23278;52.110;6.050;2023-05-25T02:53:40;3.40;;;1.48;;
37411;SDS011;23278;52.110;6.050;2023-05-25T02:56:06;4.18;;;1.55;;
37411;SDS011;23278;52.110;6.050;2023-05-25T02:58:34;2.97;;;1.20;;
37411;SDS011;23278;52.110;6.050;2023-05-25T03:01:05;4.22;;;1.38;;
37411;SDS011;23278;52.110;6.050;2023-05-25T03:03:35;3.22;;;1.65;;
37411;SDS011;23278;52.110;6.050;2023-05-25T03:06:02;5.07;;;1.90;;
37411;SDS011;23278;52.110;6.050;2023-05-25T03:08:31;3.25;;;1.30;;
37411;SDS011;23278;52.110;6.050;2023-05-25T03:10:58;4.13;;;1.60;;
37411;SDS011;23278;52.110;6.050;2023-05-25T03:13:25;3.88;;;1.20;;
37411;SDS011;23278;52.110;6.050;2023-05-25T03:15:50;3.63;;;1.70;;
37411;SDS011;23278;52.110;6.050;2023-05-25T03:18:17;3.47;;;1.40;;
37411;SDS011;23278;52.110;6.050;2023-05-25T03:20:43;4.18;;;1.50;;
37411;SDS011;23278;52.110;6.050;2023-05-25T03:23:10;2.22;;;1.67;;
37411;SDS011;23278;52.110;6.050;2023-05-25T03:25:37;3.50;;;1.73;;
37411;SDS011;23278;52.110;6.050;2023-05-25T03:28:03;3.45;;;1.33;;
37411;SDS011;23278;52.110;6.050;2023-05-25T03:30:29;2.70;;;1.40;;
37411;SDS011;23278;52.110;6.050;2023-05-25T03:32:55;2.05;;;1.30;;
37411;SDS011;23278;52.110;6.050;2023-05-25T03:35:22;2.92;;;1.58;;
37411;SDS011;23278;52.110;6.050;2023-05-25T03:37:48;2.30;;;1.48;;
37411;SDS011;23278;52.110;6.050;2023-05-25T03:40:14;2.92;;;1.77;;
37411;SDS011;23278;52.110;6.050;2023-05-25T03:42:40;4.47;;;1.40;;
37411;SDS011;23278;52.110;6.050;2023-05-25T03:45:06;2.67;;;2.10;;
37411;SDS011;23278;52.110;6.050;2023-05-25T03:47:35;2.50;;;1.35;;
37411;SDS011;23278;52.110;6.050;2023-05-25T03:50:04;5.90;;;1.10;;
37411;SDS011;23278;52.110;6.050;2023-05-25T03:52:33;5.35;;;2.10;;
37411;SDS011;23278;52.110;6.050;2023-05-25T03:54:59;3.28;;;1.45;;
37411;SDS011;23278;52.110;6.050;2023-05-25T03:57:26;3.53;;;1.70;;
37411;SDS011;23278;52.110;6.050;2023-05-25T03:59:52;4.43;;;1.55;;
37411;SDS011;23278;52.110;6.050;2023-05-25T04:02:18;4.63;;;1.40;;
37411;SDS011;23278;52.110;6.050;2023-05-25T04:04:44;5.28;;;1.73;;
37411;SDS011;23278;52.110;6.050;2023-05-25T04:07:10;6.60;;;1.52;;
37411;SDS011;23278;52.110;6.050;2023-05-25T04:09:36;4.60;;;1.60;;
37411;SDS011;23278;52.110;6.050;2023-05-25T04:12:02;5.95;;;1.77;;
37411;SDS011;23278;52.110;6.050;2023-05-25T04:14:28;3.42;;;1.67;;
37411;SDS011;23278;52.110;6.050;2023-05-25T04:16:54;3.05;;;1.52;;
37411;SDS011;23278;52.110;6.050;2023-05-25T04:19:21;3.45;;;1.70;;
37411;SDS011;23278;52.110;6.050;2023-05-25T04:21:46;4.43;;;1.88;;
37411;SDS011;23278;52.110;6.050;2023-05-25T04:24:14;2.88;;;1.58;;
37411;SDS011;23278;52.110;6.050;2023-05-25T04:26:41;5.90;;;1.90;;
37411;SDS011;23278;52.110;6.050;2023-05-25T04:29:08;5.22;;;1.73;;
37411;SDS011;23278;52.110;6.050;2023-05-25T04:31:54;5.25;;;1.88;;
37411;SDS011;23278;52.110;6.050;2023-05-25T04:34:41;4.38;;;2.42;;
37411;SDS011;23278;52.110;6.050;2023-05-25T04:37:17;3.40;;;1.48;;
37411;SDS011;23278;52.110;6.050;2023-05-25T04:39:44;4.53;;;1.73;;
37411;SDS011;23278;52.110;6.050;2023-05-25T04:42:10;5.32;;;1.40;;
37411;SDS011;23278;52.110;6.050;2023-05-25T04:44:37;6.97;;;2.85;;
37411;SDS011;23278;52.110;6.050;2023-05-25T04:47:05;5.90;;;2.10;;
37411;SDS011;23278;52.110;6.050;2023-05-25T04:49:32;3.22;;;2.03;;
37411;SDS011;23278;52.110;6.050;2023-05-25T04:51:58;3.17;;;1.95;;
37411;SDS011;23278;52.110;6.050;2023-05-25T04:54:27;3.63;;;2.13;;
37411;SDS011;23278;52.110;6.050;2023-05-25T04:56:56;12.95;;;3.00;;
37411;SDS011;23278;52.110;6.050;2023-05-25T04:59:26;3.75;;;1.50;;
37411;SDS011;23278;52.110;6.050;2023-05-25T05:01:54;3.90;;;1.80;;
37411;SDS011;23278;52.110;6.050;2023-05-25T05:04:20;5.20;;;2.05;;
37411;SDS011;23278;52.110;6.050;2023-05-25T05:06:47;4.45;;;1.83;;
37411;SDS011;23278;52.110;6.050;2023-05-25T05:09:21;7.50;;;2.35;;
37411;SDS011;23278;52.110;6.050;2023-05-25T05:11:47;5.57;;;2.60;;
37411;SDS011;23278;52.110;6.050;2023-05-25T05:14:13;4.60;;;2.28;;
37411;SDS011;23278;52.110;6.050;2023-05-25T05:17:00;8.95;;;2.97;;
37411;SDS011;23278;52.110;6.050;2023-05-25T05:19:26;2.78;;;2.40;;
37411;SDS011;23278;52.110;6.050;2023-05-25T05:21:52;3.35;;;2.13;;
37411;SDS011;23278;52.110;6.050;2023-05-25T05:24:19;5.45;;;2.30;;
37411;SDS011;23278;52.110;6.050;2023-05-25T05:26:45;5.03;;;2.47;;
37411;SDS011;23278;52.110;6.050;2023-05-25T05:29:13;3.33;;;2.10;;
37411;SDS011;23278;52.110;6.050;2023-05-25T05:31:41;5.53;;;2.50;;
37411;SDS011;23278;52.110;6.050;2023-05-25T05:34:10;5.47;;;2.25;;
37411;SDS011;23278;52.110;6.050;2023-05-25T05:36:36;4.20;;;2.63;;
37411;SDS011;23278;52.110;6.050;2023-05-25T05:39:01;6.00;;;2.42;;
37411;SDS011;23278;52.110;6.050;2023-05-25T05:41:27;3.83;;;2.15;;
37411;SDS011;23278;52.110;6.050;2023-05-25T05:43:56;3.80;;;1.65;;
37411;SDS011;23278;52.110;6.050;2023-05-25T05:46:23;3.90;;;1.95;;
37411;SDS011;23278;52.110;6.050;2023-05-25T05:48:49;3.45;;;1.92;;
37411;SDS011;23278;52.110;6.050;2023-05-25T05:51:15;6.45;;;2.80;;
37411;SDS011;23278;52.110;6.050;2023-05-25T05:53:42;4.72;;;2.63;;
37411;SDS011;23278;52.110;6.050;2023-05-25T05:56:15;4.82;;;2.58;;
37411;SDS011;23278;52.110;6.050;2023-05-25T05:58:42;7.82;;;2.03;;
37411;SDS011;23278;52.110;6.050;2023-05-25T06:01:08;4.22;;;2.33;;
37411;SDS011;23278;52.110;6.050;2023-05-25T06:03:34;5.35;;;3.05;;
37411;SDS011;23278;52.110;6.050;2023-05-25T06:06:00;3.60;;;1.45;;
37411;SDS011;23278;52.110;6.050;2023-05-25T06:08:26;6.95;;;2.47;;
37411;SDS011;23278;52.110;6.050;2023-05-25T06:10:51;3.75;;;2.30;;
37411;SDS011;23278;52.110;6.050;2023-05-25T06:13:18;7.88;;;2.63;;
37411;SDS011;23278;52.110;6.050;2023-05-25T06:15:44;3.85;;;2.33;;
37411;SDS011;23278;52.110;6.050;2023-05-25T06:18:15;4.40;;;2.30;;
37411;SDS011;23278;52.110;6.050;2023-05-25T06:20:41;6.85;;;2.80;;
37411;SDS011;23278;52.110;6.050;2023-05-25T06:23:07;5.07;;;2.17;;
37411;SDS011;23278;52.110;6.050;2023-05-25T06:25:35;11.48;;;4.47;;
37411;SDS011;23278;52.110;6.050;2023-05-25T06:28:04;4.22;;;2.08;;
37411;SDS011;23278;52.110;6.050;2023-05-25T06:30:30;6.63;;;3.03;;
37411;SDS011;23278;52.110;6.050;2023-05-25T06:32:56;6.32;;;2.55;;
37411;SDS011;23278;52.110;6.050;2023-05-25T06:35:24;6.57;;;2.20;;
37411;SDS011;23278;52.110;6.050;2023-05-25T06:37:51;4.68;;;2.22;;
37411;SDS011;23278;52.110;6.050;2023-05-25T06:40:18;7.53;;;2.20;;
37411;SDS011;23278;52.110;6.050;2023-05-25T06:42:44;8.88;;;2.90;;
37411;SDS011;23278;52.110;6.050;2023-05-25T06:45:40;5.47;;;2.03;;
37411;SDS011;23278;52.110;6.050;2023-05-25T06:48:07;6.00;;;2.53;;
37411;SDS011;23278;52.110;6.050;2023-05-25T06:50:33;11.65;;;3.72;;
37411;SDS011;23278;52.110;6.050;2023-05-25T06:52:58;6.68;;;3.40;;
37411;SDS011;23278;52.110;6.050;2023-05-25T06:55:24;8.43;;;2.50;;
37411;SDS011;23278;52.110;6.050;2023-05-25T06:57:50;5.50;;;2.13;;
37411;SDS011;23278;52.110;6.050;2023-05-25T07:00:16;7.95;;;3.50;;
37411;SDS011;23278;52.110;6.050;2023-05-25T07:02:43;7.65;;;2.83;;
37411;SDS011;23278;52.110;6.050;2023-05-25T07:05:09;5.53;;;2.88;;
37411;SDS011;23278;52.110;6.050;2023-05-25T07:07:35;8.60;;;3.22;;
37411;SDS011;23278;52.110;6.050;2023-05-25T07:10:02;12.30;;;5.07;;
37411;SDS011;23278;52.110;6.050;2023-05-25T07:12:28;7.80;;;2.83;;
37411;SDS011;23278;52.110;6.050;2023-05-25T07:14:56;3.90;;;2.20;;
37411;SDS011;23278;52.110;6.050;2023-05-25T07:17:22;7.68;;;3.30;;
37411;SDS011;23278;52.110;6.050;2023-05-25T07:19:48;7.32;;;2.92;;
37411;SDS011;23278;52.110;6.050;2023-05-25T07:22:14;7.25;;;3.13;;
37411;SDS011;23278;52.110;6.050;2023-05-25T07:24:44;5.90;;;2.38;;
37411;SDS011;23278;52.110;6.050;2023-05-25T07:27:10;8.25;;;3.25;;
37411;SDS011;23278;52.110;6.050;2023-05-25T07:29:38;7.78;;;1.95;;
37411;SDS011;23278;52.110;6.050;2023-05-25T07:32:05;8.73;;;4.15;;
37411;SDS011;23278;52.110;6.050;2023-05-25T07:34:32;7.63;;;2.55;;
37411;SDS011;23278;52.110;6.050;2023-05-25T07:36:58;10.07;;;4.68;;
37411;SDS011;23278;52.110;6.050;2023-05-25T07:39:24;4.95;;;2.78;;
37411;SDS011;23278;52.110;6.050;2023-05-25T07:41:50;4.90;;;2.60;;
37411;SDS011;23278;52.110;6.050;2023-05-25T07:44:16;8.52;;;3.53;;
37411;SDS011;23278;52.110;6.050;2023-05-25T07:46:42;6.18;;;2.70;;
37411;SDS011;23278;52.110;6.050;2023-05-25T07:49:08;6.07;;;2.70;;
37411;SDS011;23278;52.110;6.050;2023-05-25T07:54:10;9.48;;;2.92;;
37411;SDS011;23278;52.110;6.050;2023-05-25T07:56:36;7.80;;;2.90;;
37411;SDS011;23278;52.110;6.050;2023-05-25T07:59:02;6.70;;;2.58;;
37411;SDS011;23278;52.110;6.050;2023-05-25T08:01:29;7.10;;;3.15;;
37411;SDS011;23278;52.110;6.050;2023-05-25T08:03:55;7.20;;;2.85;;
37411;SDS011;23278;52.110;6.050;2023-05-25T08:06:21;12.48;;;2.85;;
37411;SDS011;23278;52.110;6.050;2023-05-25T08:08:47;5.30;;;2.03;;
37411;SDS011;23278;52.110;6.050;2023-05-25T08:11:14;6.30;;;2.50;;
37411;SDS011;23278;52.110;6.050;2023-05-25T08:13:43;6.45;;;2.67;;
37411;SDS011;23278;52.110;6.050;2023-05-25T08:16:09;6.25;;;2.20;;
37411;SDS011;23278;52.110;6.050;2023-05-25T08:18:35;7.55;;;2.63;;
37411;SDS011;23278;52.110;6.050;2023-05-25T08:21:01;7.47;;;3.00;;
37411;SDS011;23278;52.110;6.050;2023-05-25T08:23:27;10.45;;;2.60;;
37411;SDS011;23278;52.110;6.050;2023-05-25T08:25:53;11.35;;;2.38;;
37411;SDS011;23278;52.110;6.050;2023-05-25T08:28:20;8.80;;;2.72;;
37411;SDS011;23278;52.110;6.050;2023-05-25T08:30:46;7.80;;;2.47;;
37411;SDS011;23278;52.110;6.050;2023-05-25T08:33:12;8.23;;;2.67;;
37411;SDS011;23278;52.110;6.050;2023-05-25T08:35:38;3.97;;;2.13;;
37411;SDS011;23278;52.110;6.050;2023-05-25T08:38:07;10.15;;;3.05;;
37411;SDS011;23278;52.110;6.050;2023-05-25T08:40:33;7.20;;;2.17;;
37411;SDS011;23278;52.110;6.050;2023-05-25T08:42:59;7.22;;;2.08;;
37411;SDS011;23278;52.110;6.050;2023-05-25T08:45:25;8.32;;;2.53;;
37411;SDS011;23278;52.110;6.050;2023-05-25T08:47:52;6.32;;;1.70;;
37411;SDS011;23278;52.110;6.050;2023-05-25T08:50:23;7.70;;;2.65;;
37411;SDS011;23278;52.110;6.050;2023-05-25T08:52:51;6.10;;;1.80;;
37411;SDS011;23278;52.110;6.050;2023-05-25T08:55:19;9.40;;;3.08;;
37411;SDS011;23278;52.110;6.050;2023-05-25T09:00:30;4.55;;;1.38;;
37411;SDS011;23278;52.110;6.050;2023-05-25T09:05:34;5.80;;;2.33;;
37411;SDS011;23278;52.110;6.050;2023-05-25T09:08:03;5.63;;;2.15;;
37411;SDS011;23278;52.110;6.050;2023-05-25T09:10:32;7.95;;;2.35;;
37411;SDS011;23278;52.110;6.050;2023-05-25T09:12:59;3.80;;;1.90;;
37411;SDS011;23278;52.110;6.050;2023-05-25T09:15:26;5.20;;;2.15;;
37411;SDS011;23278;52.110;6.050;2023-05-25T09:17:52;7.38;;;2.15;;
37411;SDS011;23278;52.110;6.050;2023-05-25T09:20:18;8.48;;;2.05;;
37411;SDS011;23278;52.110;6.050;2023-05-25T09:22:45;5.78;;;2.35;;
37411;SDS011;23278;52.110;6.050;2023-05-25T09:25:12;7.43;;;2.53;;
37411;SDS011;23278;52.110;6.050;2023-05-25T09:27:42;4.97;;;2.00;;
37411;SDS011;23278;52.110;6.050;2023-05-25T09:30:10;6.15;;;2.33;;
37411;SDS011;23278;52.110;6.050;2023-05-25T09:32:37;5.78;;;1.60;;
37411;SDS011;23278;52.110;6.050;2023-05-25T09:35:07;6.05;;;2.22;;
37411;SDS011;23278;52.110;6.050;2023-05-25T09:37:34;8.05;;;1.55;;
37411;SDS011;23278;52.110;6.050;2023-05-25T09:40:06;4.53;;;1.92;;
37411;SDS011;23278;52.110;6.050;2023-05-25T09:42:34;4.95;;;2.25;;
37411;SDS011;23278;52.110;6.050;2023-05-25T09:45:00;4.68;;;1.77;;
37411;SDS011;23278;52.110;6.050;2023-05-25T09:47:27;6.72;;;1.60;;
37411;SDS011;23278;52.110;6.050;2023-05-25T09:49:53;5.00;;;1.48;;
37411;SDS011;23278;52.110;6.050;2023-05-25T09:52:20;7.20;;;1.42;;
37411;SDS011;23278;52.110;6.050;2023-05-25T09:54:47;4.88;;;1.38;;
37411;SDS011;23278;52.110;6.050;2023-05-25T09:57:15;3.75;;;1.08;;
37411;SDS011;23278;52.110;6.050;2023-05-25T09:59:42;4.38;;;1.90;;
37411;SDS011;23278;52.110;6.050;2023-05-25T10:02:09;4.90;;;1.30;;
37411;SDS011;23278;52.110;6.050;2023-05-25T10:04:36;8.52;;;1.60;;
37411;SDS011;23278;52.110;6.050;2023-05-25T10:07:03;5.35;;;1.52;;
37411;SDS011;23278;52.110;6.050;2023-05-25T10:09:30;3.63;;;1.55;;
37411;SDS011;23278;52.110;6.050;2023-05-25T10:11:57;2.72;;;1.50;;
37411;SDS011;23278;52.110;6.050;2023-05-25T10:14:26;3.60;;;1.25;;
37411;SDS011;23278;52.110;6.050;2023-05-25T10:16:53;4.05;;;1.35;;
37411;SDS011;23278;52.110;6.050;2023-05-25T10:19:27;3.50;;;1.10;;
37411;SDS011;23278;52.110;6.050;2023-05-25T10:22:02;4.55;;;1.63;;
37411;SDS011;23278;52.110;6.050;2023-05-25T10:24:33;4.53;;;1.10;;
37411;SDS011;23278;52.110;6.050;2023-05-25T10:27:07;3.20;;;1.20;;
37411;SDS011;23278;52.110;6.050;2023-05-25T10:29:37;7.10;;;2.03;;
37411;SDS011;23278;52.110;6.050;2023-05-25T10:32:04;4.95;;;1.67;;
37411;SDS011;23278;52.110;6.050;2023-05-25T10:34:30;5.93;;;1.73;;
37411;SDS011;23278;52.110;6.050;2023-05-25T10:36:56;4.95;;;1.55;;
37411;SDS011;23278;52.110;6.050;2023-05-25T10:39:23;3.33;;;1.17;;
37411;SDS011;23278;52.110;6.050;2023-05-25T10:41:51;4.85;;;1.20;;
37411;SDS011;23278;52.110;6.050;2023-05-25T10:44:18;4.85;;;1.05;;
37411;SDS011;23278;52.110;6.050;2023-05-25T10:46:44;5.25;;;1.10;;
37411;SDS011;23278;52.110;6.050;2023-05-25T10:49:11;3.65;;;1.27;;
37411;SDS011;23278;52.110;6.050;2023-05-25T10:51:40;5.25;;;1.20;;
37411;SDS011;23278;52.110;6.050;2023-05-25T10:54:07;3.25;;;1.00;;
37411;SDS011;23278;52.110;6.050;2023-05-25T10:59:29;4.78;;;1.75;;
37411;SDS011;23278;52.110;6.050;2023-05-25T11:01:54;9.45;;;1.52;;
37411;SDS011;23278;52.110;6.050;2023-05-25T11:04:20;5.75;;;1.13;;
37411;SDS011;23278;52.110;6.050;2023-05-25T11:09:25;7.32;;;1.70;;
37411;SDS011;23278;52.110;6.050;2023-05-25T11:19:42;4.72;;;1.50;;
37411;SDS011;23278;52.110;6.050;2023-05-25T11:22:14;4.47;;;1.52;;
37411;SDS011;23278;52.110;6.050;2023-05-25T11:24:42;5.95;;;1.38;;
37411;SDS011;23278;52.110;6.050;2023-05-25T11:27:11;3.60;;;1.27;;
37411;SDS011;23278;52.110;6.050;2023-05-25T11:29:38;5.38;;;1.77;;
37411;SDS011;23278;52.110;6.050;2023-05-25T11:32:10;6.05;;;1.20;;
37411;SDS011;23278;52.110;6.050;2023-05-25T11:34:40;3.78;;;0.90;;
37411;SDS011;23278;52.110;6.050;2023-05-25T11:37:17;6.10;;;1.20;;
37411;SDS011;23278;52.110;6.050;2023-05-25T11:39:49;5.03;;;1.10;;
37411;SDS011;23278;52.110;6.050;2023-05-25T11:42:16;6.57;;;1.85;;
37411;SDS011;23278;52.110;6.050;2023-05-25T11:44:46;3.95;;;2.13;;
37411;SDS011;23278;52.110;6.050;2023-05-25T11:47:13;3.58;;;1.00;;
37411;SDS011;23278;52.110;6.050;2023-05-25T11:49:46;6.07;;;1.50;;
37411;SDS011;23278;52.110;6.050;2023-05-25T11:52:17;3.90;;;1.75;;
37411;SDS011;23278;52.110;6.050;2023-05-25T11:54:44;5.68;;;2.30;;
37411;SDS011;23278;52.110;6.050;2023-05-25T11:57:14;5.00;;;1.00;;
37411;SDS011;23278;52.110;6.050;2023-05-25T11:59:54;5.07;;;1.52;;
37411;SDS011;23278;52.110;6.050;2023-05-25T12:02:22;11.52;;;2.42;;
37411;SDS011;23278;52.110;6.050;2023-05-25T12:04:58;5.13;;;1.17;;
37411;SDS011;23278;52.110;6.050;2023-05-25T12:07:28;8.95;;;1.33;;
37411;SDS011;23278;52.110;6.050;2023-05-25T12:10:13;6.70;;;1.20;;
37411;SDS011;23278;52.110;6.050;2023-05-25T12:12:44;6.60;;;1.30;;
37411;SDS011;23278;52.110;6.050;2023-05-25T12:15:21;5.93;;;1.55;;
37411;SDS011;23278;52.110;6.050;2023-05-25T12:17:49;4.53;;;1.30;;
37411;SDS011;23278;52.110;6.050;2023-05-25T12:20:16;4.03;;;1.30;;
37411;SDS011;23278;52.110;6.050;2023-05-25T12:22:43;5.70;;;1.35;;
37411;SDS011;23278;52.110;6.050;2023-05-25T12:25:11;5.85;;;1.15;;
37411;SDS011;23278;52.110;6.050;2023-05-25T12:27:38;3.80;;;1.30;;
37411;SDS011;23278;52.110;6.050;2023-05-25T12:30:05;6.20;;;1.60;;
37411;SDS011;23278;52.110;6.050;2023-05-25T12:32:33;5.85;;;1.73;;
37411;SDS011;23278;52.110;6.050;2023-05-25T12:35:04;4.05;;;1.17;;
37411;SDS011;23278;52.110;6.050;2023-05-25T12:37:30;4.55;;;1.60;;
37411;SDS011;23278;52.110;6.050;2023-05-25T12:39:57;10.15;;;2.28;;
37411;SDS011;23278;52.110;6.050;2023-05-25T12:42:23;6.35;;;1.40;;
37411;SDS011;23278;52.110;6.050;2023-05-25T12:44:53;4.88;;;1.50;;
37411;SDS011;23278;52.110;6.050;2023-05-25T12:47:22;5.45;;;1.27;;
37411;SDS011;23278;52.110;6.050;2023-05-25T12:52:32;5.80;;;1.83;;
37411;SDS011;23278;52.110;6.050;2023-05-25T12:55:21;4.55;;;1.30;;
37411;SDS011;23278;52.110;6.050;2023-05-25T12:57:54;5.68;;;1.35;;
37411;SDS011;23278;52.110;6.050;2023-05-25T13:00:27;5.28;;;1.92;;
37411;SDS011;23278;52.110;6.050;2023-05-25T13:02:56;7.28;;;1.48;;
37411;SDS011;23278;52.110;6.050;2023-05-25T13:05:23;5.57;;;1.90;;
37411;SDS011;23278;52.110;6.050;2023-05-25T13:07:54;4.78;;;1.15;;
37411;SDS011;23278;52.110;6.050;2023-05-25T13:10:21;7.35;;;1.55;;
37411;SDS011;23278;52.110;6.050;2023-05-25T13:12:48;8.00;;;2.20;;
37411;SDS011;23278;52.110;6.050;2023-05-25T13:15:19;6.05;;;1.70;;
37411;SDS011;23278;52.110;6.050;2023-05-25T13:17:46;7.28;;;1.83;;
37411;SDS011;23278;52.110;6.050;2023-05-25T13:20:22;12.30;;;3.15;;
37411;SDS011;23278;52.110;6.050;2023-05-25T13:22:51;7.63;;;2.42;;
37411;SDS011;23278;52.110;6.050;2023-05-25T13:25:19;7.82;;;2.53;;
37411;SDS011;23278;52.110;6.050;2023-05-25T13:27:51;9.25;;;2.50;;
37411;SDS011;23278;52.110;6.050;2023-05-25T13:30:18;7.43;;;1.90;;
37411;SDS011;23278;52.110;6.050;2023-05-25T13:32:46;6.95;;;2.25;;
37411;SDS011;23278;52.110;6.050;2023-05-25T13:35:12;9.27;;;2.45;;
37411;SDS011;23278;52.110;6.050;2023-05-25T13:38:01;9.40;;;2.72;;
37411;SDS011;23278;52.110;6.050;2023-05-25T13:40:27;9.30;;;2.65;;
37411;SDS011;23278;52.110;6.050;2023-05-25T13:42:53;7.53;;;2.25;;
37411;SDS011;23278;52.110;6.050;2023-05-25T13:45:19;6.97;;;2.58;;
37411;SDS011;23278;52.110;6.050;2023-05-25T13:47:45;7.13;;;2.15;;
37411;SDS011;23278;52.110;6.050;2023-05-25T13:50:11;9.80;;;2.70;;
37411;SDS011;23278;52.110;6.050;2023-05-25T13:52:40;5.93;;;2.05;;
37411;SDS011;23278;52.110;6.050;2023-05-25T13:55:06;7.20;;;2.53;;
37411;SDS011;23278;52.110;6.050;2023-05-25T13:57:33;8.55;;;2.47;;
37411;SDS011;23278;52.110;6.050;2023-05-25T13:59:58;9.02;;;2.30;;
37411;SDS011;23278;52.110;6.050;2023-05-25T14:02:24;10.40;;;2.38;;
37411;SDS011;23278;52.110;6.050;2023-05-25T14:04:50;5.97;;;2.03;;
37411;SDS011;23278;52.110;6.050;2023-05-25T14:07:16;8.70;;;2.63;;
37411;SDS011;23278;52.110;6.050;2023-05-25T14:09:42;8.00;;;2.42;;
37411;SDS011;23278;52.110;6.050;2023-05-25T14:12:08;6.10;;;2.15;;
37411;SDS011;23278;52.110;6.050;2023-05-25T14:14:34;7.22;;;2.15;;
37411;SDS011;23278;52.110;6.050;2023-05-25T14:17:00;9.80;;;2.85;;
37411;SDS011;23278;52.110;6.050;2023-05-25T14:19:26;9.40;;;2.55;;
37411;SDS011;23278;52.110;6.050;2023-05-25T14:21:52;8.00;;;3.17;;
37411;SDS011;23278;52.110;6.050;2023-05-25T14:24:18;8.48;;;3.03;;
37411;SDS011;23278;52.110;6.050;2023-05-25T14:26:44;9.45;;;3.00;;
37411;SDS011;23278;52.110;6.050;2023-05-25T14:29:10;12.88;;;3.03;;
37411;SDS011;23278;52.110;6.050;2023-05-25T14:31:36;9.95;;;3.20;;
37411;SDS011;23278;52.110;6.050;2023-05-25T14:34:02;9.02;;;3.08;;
37411;SDS011;23278;52.110;6.050;2023-05-25T14:36:30;8.05;;;3.03;;
37411;SDS011;23278;52.110;6.050;2023-05-25T14:38:56;7.82;;;2.42;;
37411;SDS011;23278;52.110;6.050;2023-05-25T14:41:22;8.88;;;2.67;;
37411;SDS011;23278;52.110;6.050;2023-05-25T14:43:48;8.13;;;3.25;;
37411;SDS011;23278;52.110;6.050;2023-05-25T14:46:14;8.90;;;3.47;;
37411;SDS011;23278;52.110;6.050;2023-05-25T14:48:40;7.93;;;2.65;;
37411;SDS011;23278;52.110;6.050;2023-05-25T14:51:06;10.98;;;3.38;;
37411;SDS011;23278;52.110;6.050;2023-05-25T14:53:32;17.20;;;3.50;;
37411;SDS011;23278;52.110;6.050;2023-05-25T14:55:58;6.50;;;2.05;;
37411;SDS011;23278;52.110;6.050;2023-05-25T14:58:24;8.00;;;2.63;;
37411;SDS011;23278;52.110;6.050;2023-05-25T15:00:50;7.57;;;2.47;;
37411;SDS011;23278;52.110;6.050;2023-05-25T15:03:16;10.35;;;2.85;;
37411;SDS011;23278;52.110;6.050;2023-05-25T15:05:43;6.78;;;2.70;;
37411;SDS011;23278;52.110;6.050;2023-05-25T15:08:09;9.77;;;3.03;;
37411;SDS011;23278;52.110;6.050;2023-05-25T15:10:34;12.57;;;3.33;;
37411;SDS011;23278;52.110;6.050;2023-05-25T15:13:00;8.55;;;2.63;;
37411;SDS011;23278;52.110;6.050;2023-05-25T15:15:26;10.25;;;3.72;;
37411;SDS011;23278;52.110;6.050;2023-05-25T15:17:52;9.70;;;3.30;;
37411;SDS011;23278;52.110;6.050;2023-05-25T15:20:18;10.52;;;2.90;;
37411;SDS011;23278;52.110;6.050;2023-05-25T15:22:44;10.63;;;2.70;;